Time;durP1;ratioP1;P1;durP2;ratioP2;P2;SDS_P1;SDS_P2;PMS_P1;PMS_P2;Temp;Humidity;BMP_temperature;BMP_pressure;BME280_temperature;BME280_humidity;BME280_pressure;Samples;Min_cycle;Max_cycle;Signal;HPM_P1;HPM_P2
2022/03/16 00:02:22;;;;;;;32.07;15.40;;;9.90;99.90;;;;;;5034241;28;20177;-77
2022/03/16 00:04:52;;;;;;;31.40;16.60;;;9.90;99.90;;;;;;5015929;28;20212;-78
2022/03/16 00:07:18;;;;;;;34.83;16.67;;;9.90;99.90;;;;;;5032780;28;20308;-76
2022/03/16 00:09:44;;;;;;;32.97;16.40;;;9.90;99.90;;;;;;5034357;28;20178;-77
2022/03/16 00:12:10;;;;;;;35.63;17.20;;;9.90;99.90;;;;;;5034549;28;20177;-78
2022/03/16 00:14:37;;;;;;;37.70;17.90;;;9.90;99.90;;;;;;5033988;28;20178;-77
2022/03/16 00:17:03;;;;;;;33.60;17.47;;;9.90;99.90;;;;;;5034010;28;20266;-77
2022/03/16 00:19:29;;;;;;;31.13;17.67;;;9.90;99.90;;;;;;5033654;28;20637;-77
2022/03/16 00:21:57;;;;;;;36.23;19.00;;;9.90;99.90;;;;;;5033560;28;20204;-77
2022/03/16 00:24:22;;;;;;;34.53;17.97;;;9.90;99.90;;;;;;5033636;28;20174;-75
2022/03/16 00:26:48;;;;;;;35.57;18.93;;;9.90;99.90;;;;;;5033467;28;20189;-75
2022/03/16 00:29:14;;;;;;;37.93;19.47;;;9.90;99.90;;;;;;5033599;28;20252;-75
2022/03/16 00:31:39;;;;;;;37.20;19.03;;;9.90;99.90;;;;;;5033534;28;20520;-75
2022/03/16 00:34:05;;;;;;;37.60;18.07;;;9.90;99.90;;;;;;5033476;28;20174;-75
2022/03/16 00:36:30;;;;;;;40.13;18.83;;;9.90;99.90;;;;;;5033225;28;20510;-75
2022/03/16 00:38:56;;;;;;;33.43;17.97;;;9.90;99.90;;;;;;5033105;28;20178;-76
2022/03/16 00:41:22;;;;;;;37.43;19.60;;;9.90;99.90;;;;;;5015612;28;20661;-76
2022/03/16 00:43:47;;;;;;;41.83;20.73;;;9.90;99.90;;;;;;5030485;28;20226;-76
2022/03/16 00:46:13;;;;;;;48.13;21.03;;;9.90;99.90;;;;;;5037107;28;20240;-74
2022/03/16 00:48:39;;;;;;;45.63;21.60;;;9.90;99.90;;;;;;5053128;28;20174;-74
2022/03/16 00:51:04;;;;;;;43.80;22.57;;;9.90;99.90;;;;;;5041418;28;20271;-74
2022/03/16 00:53:33;;;;;;;43.53;22.97;;;9.90;99.90;;;;;;5033164;28;20554;-74
2022/03/16 00:55:59;;;;;;;39.97;21.10;;;9.90;99.90;;;;;;5033394;28;20182;-74
2022/03/16 00:58:24;;;;;;;37.97;21.30;;;9.90;99.90;;;;;;5032844;28;20178;-74
2022/03/16 01:00:50;;;;;;;40.33;21.87;;;9.80;99.90;;;;;;5032866;28;20188;-74
2022/03/16 01:03:16;;;;;;;38.47;21.33;;;9.80;99.90;;;;;;5044194;28;20244;-74
2022/03/16 01:05:42;;;;;;;43.73;21.57;;;9.90;99.90;;;;;;5034783;28;20204;-73
2022/03/16 01:08:08;;;;;;;41.53;21.40;;;9.80;99.90;;;;;;5051859;28;20248;-74
2022/03/16 01:10:33;;;;;;;39.40;20.70;;;9.80;99.90;;;;;;5052616;28;20216;-74
2022/03/16 01:12:59;;;;;;;38.20;21.77;;;9.80;99.90;;;;;;5052459;28;20173;-74
2022/03/16 01:15:25;;;;;;;35.33;19.27;;;9.80;99.90;;;;;;5052484;28;20287;-71
2022/03/16 01:17:51;;;;;;;35.97;20.20;;;9.80;99.90;;;;;;5052375;28;20527;-73
2022/03/16 01:20:17;;;;;;;33.90;20.13;;;9.80;99.90;;;;;;5052277;28;20180;-71
2022/03/16 01:22:43;;;;;;;41.80;21.37;;;9.80;99.90;;;;;;5052379;28;20252;-72
2022/03/16 01:25:09;;;;;;;37.90;20.90;;;9.70;99.90;;;;;;5052376;28;20288;-72
2022/03/16 01:27:35;;;;;;;39.70;21.07;;;9.70;99.90;;;;;;5052242;28;20174;-75
2022/03/16 01:30:00;;;;;;;37.43;21.73;;;9.70;99.90;;;;;;5052114;28;20180;-75
2022/03/16 01:32:26;;;;;;;41.77;21.40;;;9.60;99.90;;;;;;5052219;28;20249;-75
2022/03/16 01:34:52;;;;;;;41.13;20.63;;;9.60;99.90;;;;;;5034045;28;20172;-74
2022/03/16 01:37:17;;;;;;;36.87;20.97;;;9.70;99.90;;;;;;5052328;28;20180;-74
2022/03/16 01:39:43;;;;;;;38.10;22.87;;;9.60;99.90;;;;;;5052071;28;20641;-74
2022/03/16 01:42:09;;;;;;;46.60;22.00;;;9.60;99.90;;;;;;5052229;28;20173;-74
2022/03/16 01:44:45;;;;;;;42.70;20.97;;;9.60;99.90;;;;;;5051938;28;20205;-74
2022/03/16 01:47:12;;;;;;;43.10;22.53;;;9.60;99.90;;;;;;5051928;28;20176;-75
2022/03/16 01:49:39;;;;;;;43.20;22.17;;;9.60;99.90;;;;;;5035172;28;20174;-74
2022/03/16 01:52:05;;;;;;;45.87;23.13;;;9.60;99.90;;;;;;5049631;28;20220;-75
2022/03/16 01:54:31;;;;;;;36.50;22.53;;;9.60;99.90;;;;;;5051764;28;20536;-77
2022/03/16 01:56:57;;;;;;;40.03;20.47;;;9.60;99.90;;;;;;5051722;28;20177;-77
2022/03/16 01:59:22;;;;;;;45.07;21.20;;;9.60;99.90;;;;;;5051815;28;20269;-79
2022/03/16 02:01:48;;;;;;;41.17;22.00;;;9.60;99.90;;;;;;5051667;28;20185;-79
2022/03/16 02:04:14;;;;;;;42.17;21.30;;;9.70;99.90;;;;;;5051458;28;20201;-79
2022/03/16 02:06:39;;;;;;;43.63;23.23;;;9.70;99.90;;;;;;5051959;28;20191;-83
2022/03/16 02:09:06;;;;;;;45.67;23.43;;;9.70;99.90;;;;;;5051936;28;20203;-73
2022/03/16 02:11:31;;;;;;;40.53;23.03;;;9.70;99.90;;;;;;5051437;28;20199;-68
2022/03/16 02:13:57;;;;;;;42.37;22.07;;;9.70;99.90;;;;;;5051807;28;20173;-84
2022/03/16 02:16:23;;;;;;;45.90;24.30;;;9.60;99.90;;;;;;5051202;28;20680;-83
2022/03/16 02:18:49;;;;;;;39.37;23.43;;;9.70;99.90;;;;;;5051173;28;20247;-82
2022/03/16 02:21:16;;;;;;;44.67;23.50;;;9.60;99.90;;;;;;5051205;28;20203;-70
2022/03/16 02:23:42;;;;;;;39.37;23.20;;;9.60;99.90;;;;;;5051310;28;20255;-78
2022/03/16 02:26:12;;;;;;;43.70;23.70;;;9.60;99.90;;;;;;5051386;28;20675;-78
2022/03/16 02:28:38;;;;;;;45.00;24.23;;;9.50;99.90;;;;;;5051053;28;20211;-78
2022/03/16 02:31:05;;;;;;;44.00;24.60;;;9.50;99.90;;;;;;5033569;28;20257;-77
2022/03/16 02:33:30;;;;;;;43.63;23.17;;;9.50;99.90;;;;;;5050444;28;20184;-78
2022/03/16 02:35:56;;;;;;;36.13;21.13;;;9.40;99.90;;;;;;5044962;28;20169;-78
2022/03/16 02:38:22;;;;;;;39.87;22.40;;;9.40;99.90;;;;;;5031341;28;20174;-78
2022/03/16 02:40:48;;;;;;;46.73;20.77;;;9.40;99.90;;;;;;5031098;28;20534;-78
2022/03/16 02:43:13;;;;;;;39.40;22.40;;;9.40;99.90;;;;;;5031159;28;20201;-78
2022/03/16 02:45:39;;;;;;;48.50;25.80;;;9.40;99.90;;;;;;5030996;28;20585;-76
2022/03/16 02:48:05;;;;;;;48.40;24.47;;;9.40;99.90;;;;;;5036507;28;20573;-78
2022/03/16 02:50:31;;;;;;;45.90;24.07;;;9.40;99.90;;;;;;5050841;28;20346;-79
2022/03/16 02:52:57;;;;;;;40.93;22.53;;;9.40;99.90;;;;;;5050809;28;20212;-76
2022/03/16 02:55:23;;;;;;;54.57;25.00;;;9.30;99.90;;;;;;5050710;28;20176;-76
2022/03/16 02:57:49;;;;;;;42.03;24.07;;;9.30;99.90;;;;;;5051111;28;20165;-75
2022/03/16 03:00:15;;;;;;;47.60;24.40;;;9.30;99.90;;;;;;5051148;28;20212;-75
2022/03/16 03:02:41;;;;;;;46.63;25.57;;;9.30;99.90;;;;;;5050608;28;20193;-75
2022/03/16 03:05:07;;;;;;;45.67;25.20;;;9.30;99.90;;;;;;5050771;28;20275;-75
2022/03/16 03:07:33;;;;;;;44.77;25.93;;;9.20;99.90;;;;;;5050813;28;20181;-76
2022/03/16 03:09:58;;;;;;;50.10;25.27;;;9.30;99.90;;;;;;5050521;28;20230;-77
2022/03/16 03:12:24;;;;;;;42.93;23.57;;;9.20;99.90;;;;;;5050541;28;20315;-77
2022/03/16 03:14:50;;;;;;;58.13;25.20;;;9.30;99.90;;;;;;5050675;28;20169;-76
2022/03/16 03:17:16;;;;;;;41.73;23.27;;;9.40;99.90;;;;;;5050502;28;20189;-76
2022/03/16 03:19:43;;;;;;;47.57;24.53;;;9.30;99.90;;;;;;5050562;28;20173;-76
2022/03/16 03:22:09;;;;;;;49.13;25.53;;;9.40;99.90;;;;;;5050524;28;20181;-77
2022/03/16 03:24:35;;;;;;;43.83;25.20;;;;;;;;;;5044986;28;20170;-76
2022/03/16 03:27:01;;;;;;;51.50;26.23;;;9.30;99.90;;;;;;5030592;28;20268;-74
2022/03/16 03:29:27;;;;;;;48.83;26.03;;;9.40;99.90;;;;;;5029354;28;20655;-77
2022/03/16 03:31:53;;;;;;;51.80;25.60;;;9.40;99.90;;;;;;5032102;28;20555;-77
2022/03/16 03:34:18;;;;;;;48.77;25.40;;;9.40;99.90;;;;;;5034565;28;20235;-77
2022/03/16 03:36:44;;;;;;;46.23;25.80;;;9.40;99.90;;;;;;5034344;28;20190;-77
2022/03/16 03:39:10;;;;;;;49.73;24.37;;;9.40;99.90;;;;;;5034491;28;20174;-76
2022/03/16 03:41:36;;;;;;;42.83;24.17;;;9.50;99.90;;;;;;5034411;28;20261;-76
2022/03/16 03:44:02;;;;;;;43.93;24.20;;;9.40;99.90;;;;;;5034324;28;20169;-75
2022/03/16 03:46:27;;;;;;;48.70;25.23;;;9.50;99.90;;;;;;5034317;28;20213;-76
2022/03/16 03:48:53;;;;;;;49.07;24.60;;;9.40;99.90;;;;;;5034351;28;20636;-76
2022/03/16 03:51:19;;;;;;;47.07;25.43;;;9.40;99.90;;;;;;5034420;28;20239;-75
2022/03/16 03:53:45;;;;;;;52.03;25.77;;;9.50;99.90;;;;;;5034421;28;20621;-76
2022/03/16 03:56:10;;;;;;;45.27;25.00;;;9.50;99.90;;;;;;5033572;28;20205;-75
2022/03/16 03:58:38;;;;;;;44.67;24.77;;;9.50;99.90;;;;;;5054300;28;20213;-76
2022/03/16 04:01:05;;;;;;;50.17;26.23;;;9.50;99.90;;;;;;5045691;28;20173;-77
2022/03/16 04:03:31;;;;;;;55.87;26.67;;;9.50;99.90;;;;;;5034428;28;20166;-81
2022/03/16 04:05:57;;;;;;;57.63;28.23;;;9.50;99.90;;;;;;5034169;28;20214;-79
2022/03/16 04:08:22;;;;;;;54.63;27.37;;;9.50;99.90;;;;;;5034318;28;20249;-76
2022/03/16 04:10:48;;;;;;;57.60;27.43;;;9.50;99.90;;;;;;5034139;28;20181;-79
2022/03/16 04:13:14;;;;;;;50.93;25.97;;;9.50;99.90;;;;;;5042011;28;20177;-80
2022/03/16 04:15:39;;;;;;;45.97;25.27;;;9.60;99.90;;;;;;5054143;28;20212;-80
2022/03/16 04:18:05;;;;;;;47.70;27.13;;;9.60;99.90;;;;;;5053973;28;20169;-81
2022/03/16 04:20:31;;;;;;;45.87;25.43;;;9.60;99.90;;;;;;5054309;28;20173;-80
2022/03/16 04:22:56;;;;;;;45.50;25.17;;;9.60;99.90;;;;;;5053865;28;20502;-80
2022/03/16 04:25:22;;;;;;;57.37;25.27;;;9.60;99.90;;;;;;5053638;28;20308;-81
2022/03/16 04:27:47;;;;;;;55.27;25.17;;;9.60;99.90;;;;;;5053726;28;20224;-77
2022/03/16 04:30:13;;;;;;;48.77;26.60;;;9.60;99.90;;;;;;5053589;28;20230;-77
2022/03/16 04:32:39;;;;;;;48.73;27.07;;;9.60;99.90;;;;;;5053709;28;20173;-77
2022/03/16 04:35:05;;;;;;;53.40;27.73;;;9.60;99.90;;;;;;5053538;28;20196;-79
2022/03/16 04:37:30;;;;;;;51.57;27.87;;;9.50;99.90;;;;;;5053246;28;20181;-78
2022/03/16 04:39:56;;;;;;;47.20;27.80;;;9.40;99.90;;;;;;5053537;28;20180;-78
2022/03/16 04:42:22;;;;;;;54.33;28.73;;;9.50;99.90;;;;;;5052887;28;20251;-79
2022/03/16 04:44:47;;;;;;;53.13;26.87;;;9.40;99.90;;;;;;5052448;28;20213;-79
2022/03/16 04:47:13;;;;;;;56.23;28.87;;;9.50;99.90;;;;;;5053429;28;20181;-78
2022/03/16 04:49:38;;;;;;;54.37;28.20;;;9.50;99.90;;;;;;5035351;28;20219;-75
2022/03/16 04:52:04;;;;;;;63.03;29.57;;;9.50;99.90;;;;;;5052843;28;20232;-74
2022/03/16 04:54:30;;;;;;;59.67;30.57;;;9.50;99.90;;;;;;5043401;28;20174;-74
2022/03/16 04:56:56;;;;;;;63.43;34.10;;;9.50;99.90;;;;;;5033162;28;20660;-73
2022/03/16 04:59:22;;;;;;;61.93;33.57;;;9.50;99.90;;;;;;5033224;28;20202;-75
2022/03/16 05:01:47;;;;;;;63.67;33.47;;;9.50;99.90;;;;;;5033120;28;20698;-75
2022/03/16 05:04:14;;;;;;;72.57;34.50;;;9.50;99.90;;;;;;5033150;28;20178;-75
2022/03/16 05:06:39;;;;;;;77.30;36.97;;;9.40;99.90;;;;;;5042372;28;20255;-74
2022/03/16 05:09:05;;;;;;;69.63;36.83;;;9.40;99.90;;;;;;5053016;28;20205;-76
2022/03/16 05:11:31;;;;;;;77.13;39.53;;;9.40;99.90;;;;;;5052757;28;20177;-77
2022/03/16 05:13:57;;;;;;;84.90;40.27;;;9.40;99.90;;;;;;5052733;28;20178;-75
2022/03/16 05:16:22;;;;;;;86.43;41.07;;;9.40;99.90;;;;;;5052878;28;20332;-76
2022/03/16 05:18:48;;;;;;;97.07;44.40;;;9.40;99.90;;;;;;5052796;28;20165;-76
2022/03/16 05:21:14;;;;;;;85.67;42.37;;;9.30;99.90;;;;;;5052616;28;20545;-76
2022/03/16 05:23:40;;;;;;;96.93;43.87;;;9.30;99.90;;;;;;5052776;28;20173;-74
2022/03/16 05:26:06;;;;;;;91.40;42.30;;;9.30;99.90;;;;;;5052582;28;20208;-73
2022/03/16 05:28:32;;;;;;;92.63;42.10;;;9.30;99.90;;;;;;5052521;28;20178;-74
2022/03/16 05:30:58;;;;;;;89.50;43.67;;;9.30;99.90;;;;;;5052623;28;20193;-74
2022/03/16 05:33:24;;;;;;;99.00;44.13;;;9.20;99.90;;;;;;5052706;28;20165;-75
2022/03/16 05:35:51;;;;;;;102.93;45.43;;;9.20;99.90;;;;;;5052521;28;20164;-75
2022/03/16 05:38:16;;;;;;;97.57;44.27;;;9.20;99.90;;;;;;5052359;28;20178;-78
2022/03/16 05:40:43;;;;;;;102.50;43.73;;;9.30;99.90;;;;;;5052297;28;20248;-78
2022/03/16 05:43:10;;;;;;;100.93;44.47;;;9.30;99.90;;;;;;5034606;28;20181;-78
2022/03/16 05:45:36;;;;;;;82.87;41.47;;;9.20;99.90;;;;;;5052290;28;20299;-78
2022/03/16 05:48:02;;;;;;;90.90;42.60;;;9.20;99.90;;;;;;5052189;28;20192;-76
2022/03/16 05:50:28;;;;;;;104.03;45.77;;;9.10;99.90;;;;;;5052147;28;20233;-76
2022/03/16 05:52:59;;;;;;;95.30;44.70;;;9.20;99.90;;;;;;5052244;28;20181;-75
2022/03/16 05:55:25;;;;;;;101.07;44.47;;;9.20;99.90;;;;;;5036328;28;20244;-75
2022/03/16 05:57:51;;;;;;;104.60;46.33;;;9.10;99.90;;;;;;5048699;28;20631;-76
2022/03/16 06:00:22;;;;;;;102.07;45.23;;;9.10;99.90;;;;;;5048605;28;20185;-75
2022/03/16 06:02:49;;;;;;;103.43;46.13;;;9.10;99.90;;;;;;5032059;28;20208;-76
2022/03/16 06:05:15;;;;;;;108.93;46.40;;;9.00;99.90;;;;;;5031920;28;20304;-75
2022/03/16 06:07:42;;;;;;;110.00;47.77;;;9.00;99.90;;;;;;5031934;28;20166;-71
2022/03/16 06:10:15;;;;;;;112.60;47.60;;;9.10;99.90;;;;;;5031719;28;20181;-77
2022/03/16 06:13:01;;;;;;;113.37;47.50;;;9.10;99.90;;;;;;5036993;28;20176;-78
2022/03/16 06:15:29;;;;;;;117.57;47.93;;;9.20;99.90;;;;;;5051726;28;20177;-77
2022/03/16 06:18:00;;;;;;;125.67;51.07;;;9.10;99.90;;;;;;5051763;28;20174;-77
2022/03/16 06:20:28;;;;;;;117.83;49.17;;;9.10;99.90;;;;;;5051547;28;20185;-77
2022/03/16 06:22:53;;;;;;;119.03;49.70;;;9.20;99.90;;;;;;5051850;28;20531;-77
2022/03/16 06:25:19;;;;;;;128.43;50.13;;;9.10;99.90;;;;;;5051475;28;20671;-77
2022/03/16 06:27:45;;;;;;;122.20;49.90;;;9.20;99.90;;;;;;5051632;28;20169;-78
2022/03/16 06:30:11;;;;;;;133.37;51.83;;;9.20;99.90;;;;;;5051513;28;20545;-78
2022/03/16 06:32:37;;;;;;;140.83;52.00;;;9.30;99.90;;;;;;5051280;28;20651;-78
2022/03/16 06:35:05;;;;;;;140.23;53.47;;;9.20;99.90;;;;;;5051228;28;20178;-79
2022/03/16 06:37:32;;;;;;;162.43;54.57;;;9.20;99.90;;;;;;5051506;28;20199;-76
2022/03/16 06:39:57;;;;;;;144.93;54.93;;;9.20;99.90;;;;;;5051167;28;20165;-76
2022/03/16 06:42:24;;;;;;;136.20;51.70;;;9.30;99.90;;;;;;5051150;28;20177;-76
2022/03/16 06:44:49;;;;;;;140.67;50.57;;;9.30;99.90;;;;;;5051196;28;20209;-77
2022/03/16 06:47:15;;;;;;;134.07;51.50;;;9.30;99.90;;;;;;5051083;28;20679;-73
2022/03/16 06:49:41;;;;;;;138.70;51.57;;;9.30;99.90;;;;;;5041817;28;20652;-72
2022/03/16 06:52:07;;;;;;;140.43;51.43;;;9.30;99.90;;;;;;5030854;28;20588;-73
2022/03/16 06:54:32;;;;;;;141.53;50.77;;;9.30;99.90;;;;;;5031147;28;20166;-75
2022/03/16 06:56:58;;;;;;;136.53;48.70;;;9.40;99.90;;;;;;5031193;28;20277;-75
2022/03/16 06:59:23;;;;;;;131.10;48.70;;;9.40;99.90;;;;;;5031019;28;20648;-75
2022/03/16 07:01:49;;;;;;;129.97;49.53;;;9.50;99.90;;;;;;5029734;28;20174;-74
2022/03/16 07:04:15;;;;;;;127.57;47.60;;;9.50;99.90;;;;;;5030935;28;20244;-73
2022/03/16 07:06:40;;;;;;;129.83;48.60;;;9.50;99.90;;;;;;5030028;28;20291;-73
2022/03/16 07:09:06;;;;;;;115.97;46.20;;;9.50;99.90;;;;;;5030954;28;20195;-75
2022/03/16 07:11:31;;;;;;;112.23;46.87;;;9.60;99.90;;;;;;5031055;28;20181;-74
2022/03/16 07:16:41;;;;;;;101.30;43.87;;;9.70;99.90;;;;;;5031083;28;20200;-70
2022/03/16 07:19:07;;;;;;;106.70;43.53;;;9.60;99.90;;;;;;5030362;28;20641;-69
2022/03/16 07:21:33;;;;;;;106.77;44.50;;;9.70;99.90;;;;;;5029909;28;20261;-69
2022/03/16 07:23:59;;;;;;;98.93;41.83;;;9.70;99.90;;;;;;5030240;28;20649;-68
2022/03/16 07:26:25;;;;;;;100.93;43.53;;;9.80;99.90;;;;;;5030214;28;20213;-69
2022/03/16 07:28:51;;;;;;;99.07;42.03;;;9.80;99.90;;;;;;5030154;28;20209;-69
2022/03/16 07:31:17;;;;;;;102.37;41.80;;;9.80;99.90;;;;;;5030351;28;20543;-64
2022/03/16 07:33:42;;;;;;;99.10;42.03;;;9.90;99.90;;;;;;5030050;28;20182;-62
2022/03/16 07:36:08;;;;;;;99.83;44.07;;;9.90;99.90;;;;;;5030559;28;20244;-63
2022/03/16 07:38:34;;;;;;;93.70;41.90;;;9.90;99.90;;;;;;5030541;28;20690;-63
2022/03/16 07:41:02;;;;;;;98.93;41.97;;;10.00;99.90;;;;;;5030585;28;20174;-63
2022/03/16 07:43:29;;;;;;;94.57;43.10;;;10.00;99.90;;;;;;5031608;28;20170;-64
2022/03/16 07:45:54;;;;;;;96.17;42.10;;;10.10;99.90;;;;;;5034938;28;20222;-65
2022/03/16 07:48:20;;;;;;;94.40;41.87;;;10.20;99.90;;;;;;5030294;28;20178;-64
2022/03/16 07:50:46;;;;;;;102.23;41.63;;;10.20;99.90;;;;;;5029976;28;20216;-64
2022/03/16 07:53:11;;;;;;;93.37;41.90;;;10.30;99.90;;;;;;5030447;28;20197;-65
2022/03/16 07:55:37;;;;;;;88.23;39.60;;;10.40;99.90;;;;;;5030286;28;20534;-65
2022/03/16 07:58:03;;;;;;;95.83;41.80;;;10.40;99.90;;;;;;5030269;28;20698;-64
2022/03/16 08:00:28;;;;;;;101.67;42.23;;;10.30;99.90;;;;;;5030205;28;20723;-65
2022/03/16 08:02:54;;;;;;;90.27;41.10;;;10.30;99.90;;;;;;5026031;28;20653;-64
2022/03/16 08:05:24;;;;;;;98.17;42.70;;;10.30;99.90;;;;;;5010352;28;20214;-63
2022/03/16 08:07:50;;;;;;;89.80;41.73;;;10.30;99.90;;;;;;5013766;28;20209;-63
2022/03/16 08:10:16;;;;;;;106.30;44.70;;;10.30;99.90;;;;;;5029898;28;20251;-60
2022/03/16 08:12:41;;;;;;;98.80;44.83;;;10.30;99.90;;;;;;5030047;28;20593;-61
2022/03/16 08:15:07;;;;;;;106.33;43.83;;;10.20;99.90;;;;;;5029691;28;20269;-74
2022/03/16 08:17:33;;;;;;;99.53;43.30;;;10.30;99.90;;;;;;5029977;28;20647;-69
2022/03/16 08:19:59;;;;;;;98.30;41.73;;;10.20;99.90;;;;;;5033449;28;20174;-67
2022/03/16 08:22:29;;;;;;;102.23;43.17;;;10.30;99.90;;;;;;5033582;28;20182;-73
2022/03/16 08:24:55;;;;;;;107.33;44.53;;;10.40;99.90;;;;;;5033514;28;20684;-73
2022/03/16 08:27:22;;;;;;;98.43;43.30;;;10.50;99.90;;;;;;5033236;28;20178;-75
2022/03/16 08:29:48;;;;;;;109.10;44.17;;;10.50;99.90;;;;;;5033243;28;20170;-73
2022/03/16 08:32:14;;;;;;;109.73;44.93;;;10.60;99.90;;;;;;5033017;28;20182;-74
2022/03/16 08:34:40;;;;;;;105.60;45.20;;;10.50;99.90;;;;;;5033006;28;20177;-66
2022/03/16 08:37:05;;;;;;;104.43;42.70;;;10.60;99.90;;;;;;5032859;28;20178;-66
2022/03/16 08:39:31;;;;;;;103.13;44.17;;;10.60;99.90;;;;;;5015462;28;20182;-66
2022/03/16 08:41:57;;;;;;;113.30;44.40;;;10.60;99.90;;;;;;5033078;28;20193;-66
2022/03/16 08:44:23;;;;;;;101.70;43.60;;;10.50;99.90;;;;;;5032675;28;20197;-65
2022/03/16 08:46:50;;;;;;;111.63;43.53;;;10.60;99.90;;;;;;5033074;28;20444;-65
2022/03/16 08:49:21;;;;;;;99.83;42.27;;;10.60;99.90;;;;;;5032444;28;20672;-66
2022/03/16 08:51:47;;;;;;;108.30;44.53;;;10.60;99.90;;;;;;5032744;28;20274;-66
2022/03/16 08:54:12;;;;;;;102.40;44.63;;;10.50;99.90;;;;;;5032979;28;20181;-65
2022/03/16 08:56:38;;;;;;;112.57;45.20;;;10.50;99.90;;;;;;5033026;28;20181;-65
2022/03/16 08:59:04;;;;;;;112.00;44.47;;;10.50;99.90;;;;;;5014871;28;20646;-65
2022/03/16 09:01:29;;;;;;;110.40;46.07;;;10.50;99.90;;;;;;5033000;28;20173;-65
2022/03/16 09:03:55;;;;;;;106.50;45.30;;;10.50;99.90;;;;;;5032667;28;20269;-65
2022/03/16 09:06:21;;;;;;;112.57;45.07;;;10.50;99.90;;;;;;5032289;28;20689;-67
2022/03/16 09:08:47;;;;;;;112.67;46.93;;;10.40;99.90;;;;;;5032907;28;20181;-67
2022/03/16 09:11:13;;;;;;;108.17;46.37;;;10.50;99.90;;;;;;5032730;28;20625;-66
2022/03/16 09:13:39;;;;;;;117.77;46.83;;;10.60;99.90;;;;;;5032546;28;20237;-70
2022/03/16 09:16:05;;;;;;;113.87;46.47;;;10.60;99.90;;;;;;5032745;28;20180;-67
2022/03/16 09:18:31;;;;;;;140.73;55.37;;;10.60;99.90;;;;;;5032763;28;20165;-68
2022/03/16 09:20:57;;;;;;;119.13;47.20;;;10.60;99.90;;;;;;5032687;28;20182;-69
2022/03/16 09:23:22;;;;;;;112.00;45.73;;;10.60;99.90;;;;;;5032633;28;20170;-68
2022/03/16 09:25:48;;;;;;;115.17;45.67;;;10.50;99.90;;;;;;5032506;28;20237;-67
2022/03/16 09:28:14;;;;;;;109.80;44.27;;;10.50;99.90;;;;;;5032808;28;20181;-68
2022/03/16 09:30:40;;;;;;;115.33;45.27;;;10.50;99.90;;;;;;5031765;28;20731;-69
2022/03/16 09:33:06;;;;;;;120.40;47.63;;;10.50;99.90;;;;;;5032696;28;20166;-68
2022/03/16 09:35:33;;;;;;;113.77;48.23;;;10.50;99.90;;;;;;5032049;28;20212;-69
2022/03/16 09:37:59;;;;;;;119.33;47.77;;;10.50;99.90;;;;;;4997823;28;20671;-69
2022/03/16 09:40:25;;;;;;;113.53;46.63;;;10.50;99.90;;;;;;5031728;28;20209;-68
2022/03/16 09:42:54;;;;;;;140.93;61.27;;;10.50;99.90;;;;;;5031737;28;20177;-67
2022/03/16 09:45:21;;;;;;;132.37;69.27;;;10.50;99.90;;;;;;5031738;28;20197;-67
2022/03/16 09:47:48;;;;;;;101.33;50.17;;;10.50;99.90;;;;;;5031685;28;20170;-67
2022/03/16 09:50:18;;;;;;;93.40;46.17;;;10.50;99.90;;;;;;5013745;28;20231;-67
2022/03/16 09:52:44;;;;;;;73.20;38.17;;;10.60;99.90;;;;;;5031641;28;20269;-67
2022/03/16 09:55:10;;;;;;;75.73;35.07;;;10.60;99.90;;;;;;5028586;28;20252;-67
2022/03/16 09:57:35;;;;;;;68.97;34.03;;;10.70;99.90;;;;;;5030256;28;20582;-66
2022/03/16 10:00:01;;;;;;;61.90;29.87;;;10.70;99.90;;;;;;5031845;28;20182;-68
2022/03/16 10:02:27;;;;;;;52.60;27.37;;;10.70;99.90;;;;;;5031932;28;20652;-67
2022/03/16 10:04:54;;;;;;;54.23;29.80;;;10.70;99.90;;;;;;5027341;28;20197;-68
2022/03/16 10:07:29;;;;;;;52.47;28.30;;;10.70;99.90;;;;;;5022384;28;20213;-67
2022/03/16 10:15:25;;;;;;;60.90;29.77;;;10.80;99.90;;;;;;5031673;28;20261;-68
2022/03/16 10:17:59;;;;;;;50.37;28.30;;;10.80;99.90;;;;;;5031604;28;20239;-66
2022/03/16 10:20:32;;;;;;;55.13;27.67;;;10.90;99.90;;;;;;5031523;28;20195;-66
2022/03/16 10:23:03;;;;;;;55.50;30.33;;;10.90;99.90;;;;;;5031208;28;20208;-67
2022/03/16 10:25:38;;;;;;;53.83;29.47;;;11.00;99.90;;;;;;5031322;28;20209;-67
2022/03/16 10:28:27;;;;;;;48.47;25.50;;;11.00;99.90;;;;;;5031486;28;20169;-69
2022/03/16 10:30:56;;;;;;;49.20;26.38;;;11.10;99.90;;;;;;5023138;28;20190;-67
2022/03/16 10:33:29;;;;;;;52.83;29.43;;;11.10;99.90;;;;;;5031278;28;20181;-68
2022/03/16 10:36:06;;;;;;;57.93;31.37;;;11.10;99.90;;;;;;5031235;28;20174;-68
2022/03/16 10:38:50;;;;;;;48.73;29.10;;;11.10;99.90;;;;;;5031346;28;20165;-67
2022/03/16 10:46:54;;;;;;;48.20;27.73;;;11.10;99.90;;;;;;5031066;28;20248;-69
2022/03/16 10:49:22;;;;;;;44.63;26.20;;;8.20;99.90;;;;;;5031035;28;20236;-68
2022/03/16 10:52:11;;;;;;;41.77;23.60;;;11.00;99.90;;;;;;5029599;28;20312;-68
2022/03/16 10:54:37;;;;;;;42.97;24.63;;;10.90;99.90;;;;;;5031086;28;20265;-66
2022/03/16 10:57:06;;;;;;;39.20;23.67;;;10.90;99.90;;;;;;5030936;28;20509;-67
2022/03/16 10:59:33;;;;;;;35.50;21.77;;;11.00;99.90;;;;;;5030888;28;20177;-67
2022/03/16 11:02:14;;;;;;;34.97;20.97;;;10.90;99.90;;;;;;5029572;28;20228;-67
2022/03/16 11:04:41;;;;;;;38.07;22.00;;;10.90;99.90;;;;;;5030885;28;20220;-68
2022/03/16 11:07:07;;;;;;;34.77;21.27;;;10.90;99.90;;;;;;5046278;28;20178;-68
2022/03/16 11:09:34;;;;;;;37.50;21.97;;;10.50;99.90;;;;;;5031187;28;20170;-67
2022/03/16 11:14:51;;;;;;;45.30;22.27;;;10.90;99.90;;;;;;5031053;28;20655;-68
2022/03/16 11:17:17;;;;;;;37.93;22.50;;;11.00;99.90;;;;;;5030915;28;20209;-68
2022/03/16 11:19:51;;;;;;;36.07;20.60;;;11.00;99.90;;;;;;5030678;28;20186;-68
2022/03/16 11:22:29;;;;;;;29.27;19.60;;;11.00;99.90;;;;;;5030641;28;20180;-68
2022/03/16 11:25:22;;;;;;;31.27;18.77;;;11.00;99.90;;;;;;5030763;28;20188;-68
2022/03/16 11:27:53;;;;;;;29.33;17.53;;;11.00;99.90;;;;;;5029200;28;20197;-69
2022/03/16 11:30:37;;;;;;;29.63;18.43;;;10.90;99.90;;;;;;5030682;28;20177;-67
2022/03/16 11:33:08;;;;;;;29.63;18.50;;;10.50;99.90;;;;;;5030629;28;20212;-68
2022/03/16 11:35:44;;;;;;;29.20;18.10;;;10.80;99.90;;;;;;5030486;28;20669;-67
2022/03/16 11:38:15;;;;;;;29.13;18.40;;;10.80;99.90;;;;;;5030477;28;20170;-67
2022/03/16 11:40:51;;;;;;;30.87;18.27;;;10.80;99.90;;;;;;5030687;28;20272;-67
2022/03/16 11:43:25;;;;;;;33.50;19.67;;;10.80;99.90;;;;;;5030219;28;20177;-67
2022/03/16 11:45:57;;;;;;;35.93;21.30;;;10.80;99.90;;;;;;5030220;28;20210;-68
2022/03/16 11:48:31;;;;;;;37.37;22.00;;;10.70;99.90;;;;;;5029550;28;20166;-69
2022/03/16 11:51:09;;;;;;;40.13;22.60;;;10.70;99.90;;;;;;5037965;28;20220;-68
2022/03/16 11:54:08;;;;;;;36.70;21.37;;;10.60;99.90;;;;;;5033053;28;20178;-68
2022/03/16 11:56:39;;;;;;;38.00;21.87;;;10.60;99.90;;;;;;5033551;28;20529;-68
2022/03/16 11:59:28;;;;;;;40.57;24.27;;;10.70;99.90;;;;;;5034139;28;20224;-68
2022/03/16 12:02:26;;;;;;;45.67;24.93;;;10.70;99.90;;;;;;5033979;28;20171;-67
2022/03/16 12:05:00;;;;;;;47.57;25.57;;;10.70;99.90;;;;;;5034040;28;20185;-68
2022/03/16 12:07:28;;;;;;;44.73;24.20;;;10.60;99.90;;;;;;5028120;28;20192;-69
2022/03/16 12:09:54;;;;;;;39.93;22.50;;;10.60;99.90;;;;;;5034073;28;20178;-69
2022/03/16 12:15:17;;;;;;;38.03;22.07;;;10.50;99.90;;;;;;5033920;28;20192;-69
2022/03/16 12:17:52;;;;;;;37.07;20.73;;;10.50;99.90;;;;;;5015988;28;20517;-69
2022/03/16 12:20:53;;;;;;;39.57;21.87;;;10.30;99.90;;;;;;5033907;28;20219;-69
2022/03/16 12:23:41;;;;;;;39.30;22.97;;;10.40;99.90;;;;;;5033754;28;20173;-68
2022/03/16 12:26:07;;;;;;;42.73;24.00;;;10.30;99.90;;;;;;5033353;28;20672;-69
2022/03/16 12:31:19;;;;;;;40.17;23.40;;;10.20;99.90;;;;;;5033856;28;20228;-69
2022/03/16 12:33:52;;;;;;;42.20;22.23;;;10.20;99.90;;;;;;5033763;28;20198;-69
2022/03/16 12:36:24;;;;;;;59.13;31.70;;;10.10;99.90;;;;;;5033087;28;20598;-68
2022/03/16 12:39:01;;;;;;;45.60;25.03;;;10.10;99.90;;;;;;5033071;28;20169;-69
2022/03/16 12:44:15;;;;;;;44.17;22.97;;;10.10;99.90;;;;;;5033519;28;20169;-69
2022/03/16 12:46:49;;;;;;;45.83;24.20;;;10.00;99.90;;;;;;5033492;28;20249;-68
2022/03/16 12:49:18;;;;;;;57.53;30.20;;;10.00;99.90;;;;;;5033227;28;20180;-68
2022/03/16 12:51:51;;;;;;;53.60;28.97;;;10.00;99.90;;;;;;5032335;28;20218;-68
2022/03/16 12:54:36;;;;;;;36.73;22.10;;;10.00;99.90;;;;;;5033017;28;20178;-68
2022/03/16 12:57:08;;;;;;;39.37;22.27;;;10.00;99.90;;;;;;5032781;28;20200;-68
2022/03/16 12:59:37;;;;;;;38.73;20.67;;;10.00;99.90;;;;;;5033197;28;20178;-68